createdAt,value
2022-12-17T00:01:21.346Z,0.30
2022-12-17T00:04:07.010Z,0.30
2022-12-17T00:06:51.896Z,0.20
2022-12-17T00:09:37.477Z,0.30
2022-12-17T00:12:23.267Z,0.30
2022-12-17T00:15:08.635Z,0.30
2022-12-17T00:17:55.640Z,0.30
2022-12-17T00:20:44.505Z,0.30
2022-12-17T00:23:31.385Z,0.40
2022-12-17T00:26:16.804Z,0.30
2022-12-17T00:29:02.695Z,0.40
2022-12-17T00:31:49.559Z,0.40
2022-12-17T00:34:36.613Z,0.40
2022-12-17T00:37:21.898Z,0.40
2022-12-17T00:40:07.202Z,0.40
2022-12-17T00:42:52.542Z,0.40
2022-12-17T00:45:41.903Z,0.40
2022-12-17T00:48:27.218Z,0.30
2022-12-17T00:51:15.375Z,0.30
2022-12-17T00:54:00.711Z,0.30
2022-12-17T00:56:46.011Z,0.30
2022-12-17T00:59:31.527Z,0.40
2022-12-17T01:02:17.539Z,0.30
2022-12-17T01:05:02.954Z,0.30
2022-12-17T01:07:49.862Z,0.30
2022-12-17T01:10:35.554Z,0.30
2022-12-17T01:13:20.933Z,0.30
2022-12-17T01:16:06.288Z,0.30
2022-12-17T01:18:51.689Z,0.20
2022-12-17T01:21:42.495Z,0.30
2022-12-17T01:24:29.835Z,0.30
2022-12-17T01:27:15.441Z,0.30
2022-12-17T01:30:00.872Z,0.20
2022-12-17T01:32:46.296Z,0.30
2022-12-17T01:35:32.159Z,0.20
2022-12-17T01:38:20.339Z,0.20
2022-12-17T01:41:11.552Z,0.20
2022-12-17T01:43:59.967Z,0.20
2022-12-17T01:46:48.244Z,0.10
2022-12-17T01:49:33.987Z,0.10
2022-12-17T01:52:20.516Z,0.20
2022-12-17T01:55:06.913Z,0.20
2022-12-17T01:57:54.286Z,0.10
2022-12-17T02:00:40.217Z,0.20
2022-12-17T02:03:33.235Z,0.20
2022-12-17T02:06:25.766Z,0.20
2022-12-17T02:09:18.278Z,0.30
2022-12-17T02:12:13.807Z,0.30
2022-12-17T02:15:06.247Z,0.30
2022-12-17T02:17:58.954Z,0.40
2022-12-17T02:20:50.107Z,0.40
2022-12-17T02:23:51.212Z,0.30
2022-12-17T02:26:48.147Z,0.30
2022-12-17T02:29:34.603Z,0.30
2022-12-17T02:32:35.880Z,0.40
2022-12-17T02:35:28.388Z,0.40
2022-12-17T02:38:13.825Z,0.40
2022-12-17T02:41:00.522Z,0.40
2022-12-17T02:43:49.059Z,0.40
2022-12-17T02:46:35.038Z,0.40
2022-12-17T02:49:20.806Z,0.40
2022-12-17T02:52:06.950Z,0.40
2022-12-17T02:54:52.692Z,0.40
2022-12-17T02:57:43.622Z,0.40
2022-12-17T03:00:32.094Z,0.40
2022-12-17T03:03:17.432Z,0.40
2022-12-17T03:06:02.981Z,0.40
2022-12-17T03:08:48.268Z,0.40
2022-12-17T03:11:33.612Z,0.40
2022-12-17T03:14:19.071Z,0.40
2022-12-17T03:17:05.976Z,0.40
2022-12-17T03:19:51.605Z,0.40
2022-12-17T03:22:36.978Z,0.40
2022-12-17T03:25:22.768Z,0.50
2022-12-17T03:28:08.230Z,0.40
2022-12-17T03:30:53.844Z,0.50
2022-12-17T03:33:41.051Z,0.50
2022-12-17T03:36:27.133Z,0.50
2022-12-17T03:39:12.686Z,0.40
2022-12-17T03:41:58.165Z,0.50
2022-12-17T03:44:43.589Z,0.50
2022-12-17T03:47:31.426Z,0.50
2022-12-17T03:50:18.495Z,0.50
2022-12-17T03:53:03.805Z,0.50
2022-12-17T03:55:49.770Z,0.50
2022-12-17T03:58:35.769Z,0.50
2022-12-17T04:01:21.156Z,0.50
2022-12-17T04:04:06.799Z,0.50
2022-12-17T04:06:53.715Z,0.50
2022-12-17T04:09:38.922Z,0.50
2022-12-17T04:12:24.931Z,0.60
2022-12-17T04:15:09.397Z,0.60
2022-12-17T04:17:55.010Z,0.60
2022-12-17T04:20:40.548Z,0.60
2022-12-17T04:23:27.585Z,0.60
2022-12-17T04:26:13.038Z,0.60
2022-12-17T04:28:58.413Z,0.50
2022-12-17T04:31:43.955Z,0.60
2022-12-17T04:34:29.151Z,0.50
2022-12-17T04:37:14.716Z,0.50
2022-12-17T04:40:01.907Z,0.50
2022-12-17T04:42:47.590Z,0.50
2022-12-17T04:45:33.514Z,0.50
2022-12-17T04:48:23.630Z,0.40
2022-12-17T04:51:09.342Z,0.40
2022-12-17T04:53:55.059Z,0.30
2022-12-17T04:56:41.836Z,0.30
2022-12-17T04:59:27.167Z,0.30
2022-12-17T05:02:12.575Z,0.30
2022-12-17T05:04:58.302Z,0.30
2022-12-17T05:07:43.574Z,0.40
2022-12-17T05:10:29.697Z,0.40
2022-12-17T05:13:18.383Z,0.30
2022-12-17T05:16:04.820Z,0.30
2022-12-17T05:18:50.854Z,0.30
2022-12-17T05:21:36.152Z,0.30
2022-12-17T05:24:22.152Z,0.30
2022-12-17T05:27:12.906Z,0.30
2022-12-17T05:30:00.056Z,0.30
2022-12-17T05:32:45.371Z,0.20
2022-12-17T05:35:30.794Z,0.30
2022-12-17T05:38:22.636Z,0.20
2022-12-17T05:41:07.962Z,0.20
2022-12-17T05:43:53.414Z,0.20
2022-12-17T05:46:40.816Z,0.30
2022-12-17T05:49:26.189Z,0.30
2022-12-17T05:52:12.083Z,0.30
2022-12-17T05:54:58.069Z,0.20
2022-12-17T05:57:43.509Z,0.30
2022-12-17T06:00:30.410Z,0.30
2022-12-17T06:03:18.582Z,0.20
2022-12-17T06:06:04.363Z,0.20
2022-12-17T06:08:49.796Z,0.20
2022-12-17T06:11:35.159Z,0.10
2022-12-17T06:14:20.526Z,0.10
2022-12-17T06:17:05.906Z,0.20
2022-12-17T06:19:52.770Z,0.20
2022-12-17T06:22:38.173Z,0.10
2022-12-17T06:25:27.111Z,0.20
2022-12-17T06:28:17.351Z,0.20
2022-12-17T06:31:09.456Z,0.20
2022-12-17T06:33:56.219Z,0.20
2022-12-17T06:36:43.822Z,0.10
2022-12-17T06:39:29.341Z,0.20
2022-12-17T06:42:14.730Z,0.10
2022-12-17T06:45:00.120Z,0.10
2022-12-17T06:47:45.381Z,0.10
2022-12-17T06:50:30.710Z,0.10
2022-12-17T06:53:22.649Z,0.20
2022-12-17T06:56:07.915Z,0.20
2022-12-17T06:58:53.239Z,0.20
2022-12-17T07:01:38.833Z,0.20
2022-12-17T07:04:24.419Z,0.30
2022-12-17T07:07:09.665Z,0.30
2022-12-17T07:09:57.233Z,0.30
2022-12-17T07:12:42.674Z,0.30
2022-12-17T07:15:28.469Z,0.30
2022-12-17T07:18:14.710Z,0.30
2022-12-17T07:21:00.469Z,0.30
2022-12-17T07:23:45.878Z,0.30
2022-12-17T07:26:33.317Z,0.30
2022-12-17T07:29:18.679Z,0.40
2022-12-17T07:32:03.975Z,0.30
2022-12-17T07:34:49.398Z,0.30
2022-12-17T07:37:34.969Z,0.40
2022-12-17T07:40:20.470Z,0.30
2022-12-17T07:43:07.602Z,0.40
2022-12-17T07:45:53.038Z,0.40
2022-12-17T07:48:46.790Z,0.50
2022-12-17T07:51:32.431Z,0.50
2022-12-17T07:54:17.524Z,0.60
2022-12-17T07:57:03.136Z,0.60
2022-12-17T07:59:50.499Z,0.60
2022-12-17T08:02:36.406Z,0.60
2022-12-17T08:05:22.118Z,0.60
2022-12-17T08:08:07.382Z,0.60
2022-12-17T08:10:53.064Z,0.60
2022-12-17T08:13:57.759Z,0.60
2022-12-17T08:17:01.557Z,0.70
2022-12-17T08:19:47.197Z,0.70
2022-12-17T08:22:36.070Z,0.70
2022-12-17T08:25:30.696Z,0.80
2022-12-17T08:28:49.450Z,0.80
2022-12-17T08:31:33.408Z,0.70
2022-12-17T08:34:20.534Z,0.70
2022-12-17T08:37:06.021Z,0.70
2022-12-17T08:39:51.889Z,0.70
2022-12-17T08:42:37.255Z,0.80
2022-12-17T08:45:23.532Z,0.90
2022-12-17T08:48:09.050Z,0.80
2022-12-17T08:50:55.837Z,0.90
2022-12-17T08:53:41.439Z,0.90
2022-12-17T08:56:27.500Z,0.90
2022-12-17T08:59:12.869Z,0.80
2022-12-17T09:01:58.567Z,0.80
2022-12-17T09:04:44.147Z,0.80
2022-12-17T09:07:36.278Z,0.80
2022-12-17T09:10:22.424Z,0.80
2022-12-17T09:13:07.768Z,0.80
2022-12-17T09:15:53.026Z,0.90
2022-12-17T09:18:39.675Z,0.90
2022-12-17T09:21:26.574Z,0.90
2022-12-17T09:24:13.546Z,1.00
2022-12-17T09:26:59.283Z,0.90
2022-12-17T09:29:44.510Z,0.90
2022-12-17T09:32:29.807Z,0.80
2022-12-17T09:35:29.730Z,0.80
2022-12-17T09:38:15.927Z,0.80
2022-12-17T09:41:12.380Z,0.90
2022-12-17T09:51:16.705Z,0.90
2022-12-17T09:54:08.057Z,1.00
2022-12-17T09:57:02.277Z,0.90
2022-12-17T09:59:52.555Z,1.00
2022-12-17T10:02:41.273Z,1.00
2022-12-17T10:05:44.309Z,1.00
2022-12-17T10:08:35.311Z,1.00
2022-12-17T10:11:34.888Z,1.00
2022-12-17T10:14:24.921Z,1.10
2022-12-17T10:17:12.181Z,1.10
2022-12-17T10:20:00.089Z,1.00
2022-12-17T10:22:45.950Z,1.10
2022-12-17T10:25:34.839Z,1.20
2022-12-17T10:28:25.129Z,1.10
2022-12-17T10:31:11.922Z,1.20
2022-12-17T10:33:57.950Z,1.20
2022-12-17T10:36:45.342Z,1.10
2022-12-17T10:39:35.776Z,1.10
2022-12-17T10:42:22.196Z,1.00
2022-12-17T10:45:10.277Z,1.00
2022-12-17T10:48:02.910Z,1.10
2022-12-17T10:50:52.029Z,1.20
2022-12-17T10:53:41.590Z,1.20
2022-12-17T10:56:40.854Z,1.30
2022-12-17T10:59:31.376Z,1.30
2022-12-17T11:02:18.208Z,1.20
2022-12-17T11:05:08.619Z,1.20
2022-12-17T11:07:59.047Z,1.30
2022-12-17T11:10:49.082Z,1.30
2022-12-17T11:13:42.346Z,1.40
2022-12-17T11:16:39.362Z,1.50
2022-12-17T11:19:42.561Z,1.50
2022-12-17T11:22:44.718Z,1.60
2022-12-17T11:25:49.588Z,1.60
2022-12-17T11:28:40.690Z,1.60
2022-12-17T11:32:03.706Z,1.70
2022-12-17T11:35:03.720Z,1.80
2022-12-17T11:37:57.314Z,1.80
2022-12-17T11:40:49.076Z,1.80
2022-12-17T11:43:56.581Z,1.70
2022-12-17T11:46:54.386Z,1.70
2022-12-17T11:49:51.401Z,1.60
2022-12-17T11:52:48.110Z,1.40
2022-12-17T11:55:40.703Z,1.40
2022-12-17T11:58:35.143Z,1.40
2022-12-17T12:01:28.652Z,1.40
2022-12-17T12:04:24.249Z,1.40
2022-12-17T12:07:21.638Z,1.40
2022-12-17T12:10:10.491Z,1.40
2022-12-17T12:13:07.782Z,1.50
2022-12-17T12:16:02.101Z,1.50
2022-12-17T12:18:58.669Z,1.40
2022-12-17T12:21:57.390Z,1.40
2022-12-17T12:24:59.129Z,1.40
2022-12-17T12:27:56.745Z,1.40
2022-12-17T12:30:48.496Z,1.40
2022-12-17T12:33:46.394Z,1.50
2022-12-17T12:36:36.196Z,1.60
2022-12-17T12:39:22.169Z,1.50
2022-12-17T12:42:13.411Z,1.40
2022-12-17T12:45:07.713Z,1.50
2022-12-17T12:48:04.762Z,1.40
2022-12-17T12:51:01.726Z,1.40
2022-12-17T12:53:58.525Z,1.40
2022-12-17T12:56:47.324Z,1.30
2022-12-17T12:59:45.018Z,1.30
2022-12-17T13:02:44.597Z,1.30
2022-12-17T13:05:34.372Z,1.40
2022-12-17T13:08:04.671Z,1.40
2022-12-17T13:10:33.902Z,1.40
2022-12-17T13:13:13.034Z,1.40
2022-12-17T13:15:46.226Z,1.40
2022-12-17T13:18:24.630Z,1.40
2022-12-17T13:21:03.010Z,1.40
2022-12-17T13:23:34.527Z,1.30
2022-12-17T13:26:25.076Z,1.30
2022-12-17T13:29:03.327Z,1.30
2022-12-17T13:31:42.401Z,1.40
2022-12-17T13:34:19.106Z,1.40
2022-12-17T13:36:56.367Z,1.40
2022-12-17T13:39:35.595Z,1.40
2022-12-17T13:42:07.548Z,1.40
2022-12-17T13:44:41.795Z,1.40
2022-12-17T13:47:22.039Z,1.40
2022-12-17T13:50:24.493Z,1.40
2022-12-17T13:52:43.022Z,1.40
2022-12-17T13:55:18.292Z,1.40
2022-12-17T13:57:47.959Z,1.30
2022-12-17T14:00:23.014Z,1.30
2022-12-17T14:02:51.706Z,1.30
2022-12-17T14:05:28.277Z,1.20
2022-12-17T14:08:03.439Z,1.20
2022-12-17T14:10:31.956Z,1.20
2022-12-17T14:13:04.754Z,1.20
2022-12-17T14:15:33.840Z,1.20
2022-12-17T14:18:02.765Z,1.10
2022-12-17T14:20:34.319Z,1.10
2022-12-17T14:23:06.254Z,1.10
2022-12-17T14:25:40.407Z,1.10
2022-12-17T14:28:23.293Z,1.10
2022-12-17T14:31:25.047Z,1.10
2022-12-17T14:33:40.817Z,1.00
2022-12-17T14:36:16.228Z,1.00
2022-12-17T14:38:55.479Z,1.10
2022-12-17T14:41:44.414Z,1.10
2022-12-17T14:44:21.712Z,1.10
2022-12-17T14:46:51.067Z,1.10
2022-12-17T14:49:21.928Z,1.10
2022-12-17T14:51:51.398Z,1.00
2022-12-17T14:54:29.292Z,1.00
2022-12-17T14:56:59.837Z,1.00
2022-12-17T14:59:33.168Z,1.00
2022-12-17T15:02:03.847Z,1.00
2022-12-17T15:04:33.524Z,0.90
2022-12-17T15:07:01.933Z,0.90
2022-12-17T15:09:31.780Z,0.90
2022-12-17T15:12:00.243Z,0.90
2022-12-17T15:14:28.584Z,0.90
2022-12-17T15:16:59.073Z,0.90
2022-12-17T15:19:27.430Z,0.90
2022-12-17T15:21:55.851Z,0.90
2022-12-17T15:24:24.260Z,0.90
2022-12-17T15:26:54.051Z,0.90
2022-12-17T15:29:22.503Z,0.90
2022-12-17T15:31:50.794Z,0.90
2022-12-17T15:34:19.029Z,0.80
2022-12-17T15:36:47.232Z,0.80
2022-12-17T15:39:15.621Z,0.70
2022-12-17T15:42:01.254Z,0.70
2022-12-17T15:44:31.109Z,0.60
2022-12-17T15:46:59.401Z,0.60
2022-12-17T15:49:27.665Z,0.60
2022-12-17T15:51:56.192Z,0.50
2022-12-17T15:54:25.310Z,0.50
2022-12-17T15:56:54.976Z,0.40
2022-12-17T15:59:23.975Z,0.50
2022-12-17T16:01:53.881Z,0.40
2022-12-17T16:04:25.175Z,0.40
2022-12-17T16:06:54.192Z,0.30
2022-12-17T16:09:24.653Z,0.30
2022-12-17T16:11:55.570Z,0.30
2022-12-17T16:14:24.222Z,0.30
2022-12-17T16:16:54.153Z,0.20
2022-12-17T16:19:25.454Z,0.20
2022-12-17T16:21:53.735Z,0.10
2022-12-17T16:24:23.076Z,0.10
2022-12-17T16:26:51.478Z,0.10
2022-12-17T16:29:19.973Z,0.10
2022-12-17T16:31:48.434Z,0.10
2022-12-17T16:34:18.588Z,0.00
2022-12-17T16:36:46.951Z,0.00
2022-12-17T16:39:17.824Z,0.00
2022-12-17T16:41:46.793Z,0.00
2022-12-17T16:44:15.157Z,0.00
2022-12-17T16:46:46.596Z,0.00
2022-12-17T16:49:19.462Z,0.00
2022-12-17T16:51:52.428Z,0.00
2022-12-17T16:54:22.817Z,0.00
2022-12-17T16:56:51.594Z,0.00
2022-12-17T16:59:20.602Z,0.00
2022-12-17T17:01:51.654Z,0.00
2022-12-17T17:04:23.793Z,0.10
2022-12-17T17:06:54.340Z,0.10
2022-12-17T17:09:23.524Z,0.10
2022-12-17T17:11:52.802Z,0.10
2022-12-17T17:14:21.421Z,0.10
2022-12-17T17:16:49.926Z,0.10
2022-12-17T17:19:18.505Z,0.00
2022-12-17T17:21:52.804Z,0.10
2022-12-17T17:24:24.330Z,0.10
2022-12-17T17:26:53.725Z,0.00
2022-12-17T17:29:22.358Z,0.10
2022-12-17T17:32:09.920Z,0.10
2022-12-17T17:34:39.484Z,0.10
2022-12-17T17:37:09.188Z,0.10
2022-12-17T17:39:37.705Z,0.10
2022-12-17T17:42:06.551Z,0.10
2022-12-17T17:44:35.134Z,0.20
2022-12-17T17:47:03.505Z,0.10
2022-12-17T17:49:31.804Z,0.10
2022-12-17T17:52:15.649Z,0.20
2022-12-17T17:54:45.561Z,0.10
2022-12-17T17:57:13.902Z,0.20
2022-12-17T17:59:42.418Z,0.20
2022-12-17T18:02:12.332Z,0.20
2022-12-17T18:04:41.243Z,0.20
2022-12-17T18:07:25.125Z,0.20
2022-12-17T18:09:55.857Z,0.20
2022-12-17T18:12:41.639Z,0.20
2022-12-17T18:15:15.834Z,0.20
2022-12-17T18:17:45.457Z,0.30
2022-12-17T18:20:14.652Z,0.30
2022-12-17T18:22:43.612Z,0.30
2022-12-17T18:25:13.561Z,0.30
2022-12-17T18:27:42.759Z,0.30
2022-12-17T18:30:11.844Z,0.30
2022-12-17T18:32:40.158Z,0.30
2022-12-17T18:35:09.621Z,0.30
2022-12-17T18:37:38.048Z,0.20
2022-12-17T18:40:07.338Z,0.30
2022-12-17T18:42:54.549Z,0.20
2022-12-17T18:45:23.180Z,0.30
2022-12-17T18:47:52.442Z,0.30
2022-12-17T18:50:21.001Z,0.30
2022-12-17T18:52:49.257Z,0.30
2022-12-17T18:55:20.159Z,0.30
2022-12-17T18:57:49.934Z,0.20
2022-12-17T19:00:18.753Z,0.30
2022-12-17T19:02:47.175Z,0.20
2022-12-17T19:05:15.728Z,0.20
2022-12-17T19:07:44.038Z,0.20
2022-12-17T19:10:12.506Z,0.20
2022-12-17T19:12:40.949Z,0.20
2022-12-17T19:15:11.771Z,0.20
2022-12-17T19:17:40.078Z,0.20
2022-12-17T19:20:09.590Z,0.20
2022-12-17T19:22:37.854Z,0.30
2022-12-17T19:25:07.023Z,0.30
2022-12-17T19:27:35.343Z,0.30
2022-12-17T19:30:03.921Z,0.20
2022-12-17T19:32:34.036Z,0.30
2022-12-17T19:35:02.723Z,0.20
2022-12-17T19:37:31.274Z,0.20
2022-12-17T19:39:59.725Z,0.20
2022-12-17T19:42:35.205Z,0.20
2022-12-17T19:45:06.020Z,0.20
2022-12-17T19:47:36.034Z,0.20
2022-12-17T19:50:04.679Z,0.20
2022-12-17T19:52:33.074Z,0.20
2022-12-17T19:55:02.033Z,0.20
2022-12-17T19:57:30.569Z,0.10
2022-12-17T19:59:59.214Z,0.20
2022-12-17T20:02:32.431Z,0.10
2022-12-17T20:05:02.836Z,0.10
2022-12-17T20:07:31.226Z,0.10
2022-12-17T20:09:59.738Z,0.20
2022-12-17T20:12:28.095Z,0.10
2022-12-17T20:14:56.482Z,0.00
2022-12-17T20:17:26.138Z,0.10
2022-12-17T20:19:56.421Z,0.20
2022-12-17T20:22:27.872Z,0.10
2022-12-17T20:24:56.109Z,0.10
2022-12-17T20:27:24.460Z,0.10
2022-12-17T20:29:52.686Z,0.20
2022-12-17T20:32:21.412Z,0.10
2022-12-17T20:34:49.892Z,0.20
2022-12-17T20:37:18.187Z,0.20
2022-12-17T20:39:47.967Z,0.20
2022-12-17T20:42:17.952Z,0.20
2022-12-17T20:44:51.613Z,0.20
2022-12-17T20:47:21.699Z,0.20
2022-12-17T20:49:49.918Z,0.10
2022-12-17T20:52:18.102Z,0.20
2022-12-17T20:54:49.433Z,0.20
2022-12-17T20:57:17.711Z,0.20
2022-12-17T20:59:45.982Z,0.20
2022-12-17T21:02:14.374Z,0.20
2022-12-17T21:04:42.658Z,0.20
2022-12-17T21:07:10.982Z,0.20
2022-12-17T21:09:39.255Z,0.20
2022-12-17T21:12:09.770Z,0.20
2022-12-17T21:14:37.986Z,0.30
2022-12-17T21:17:06.278Z,0.20
2022-12-17T21:19:34.537Z,0.20
2022-12-17T21:22:02.756Z,0.20
2022-12-17T21:24:30.934Z,0.20
2022-12-17T21:26:59.135Z,0.20
2022-12-17T21:29:28.991Z,0.20
2022-12-17T21:31:57.251Z,0.20
2022-12-17T21:34:29.385Z,0.10
2022-12-17T21:36:57.658Z,0.20
2022-12-17T21:39:25.892Z,0.20
2022-12-17T21:42:11.619Z,0.20
2022-12-17T21:44:41.358Z,0.20
2022-12-17T21:47:09.732Z,0.20
2022-12-17T21:49:37.991Z,0.20
2022-12-17T21:52:07.709Z,0.20
2022-12-17T21:54:38.070Z,0.20
2022-12-17T21:57:06.934Z,0.20
2022-12-17T21:59:35.132Z,0.20
2022-12-17T22:02:05.109Z,0.20
2022-12-17T22:04:33.690Z,0.20
2022-12-17T22:07:12.307Z,0.20
2022-12-17T22:10:18.258Z,0.20
2022-12-17T22:12:55.682Z,0.20
2022-12-17T22:15:24.334Z,0.20
2022-12-17T22:18:01.179Z,0.20
2022-12-17T22:20:29.718Z,0.20
2022-12-17T22:22:57.987Z,0.20
2022-12-17T22:25:26.426Z,0.20
2022-12-17T22:27:54.705Z,0.20
2022-12-17T22:30:40.435Z,0.20
2022-12-17T22:33:33.139Z,0.30
2022-12-17T22:38:10.414Z,0.20
2022-12-17T22:41:47.264Z,0.20
2022-12-17T22:44:38.735Z,0.10
2022-12-17T22:44:54.160Z,0.10
2022-12-17T22:47:24.273Z,0.10
2022-12-17T22:49:54.023Z,0.10
2022-12-17T22:52:22.814Z,0.10
2022-12-17T22:54:51.404Z,0.20
2022-12-17T22:57:36.007Z,0.20
2022-12-17T23:00:10.808Z,0.20
2022-12-17T23:02:39.001Z,0.20
2022-12-17T23:05:09.497Z,0.20
2022-12-17T23:07:37.840Z,0.20
2022-12-17T23:10:07.084Z,0.20
2022-12-17T23:12:54.453Z,0.10
2022-12-17T23:15:26.274Z,0.10
2022-12-17T23:17:56.927Z,0.10
2022-12-17T23:20:27.600Z,0.10
2022-12-17T23:22:56.758Z,0.10
2022-12-17T23:25:25.840Z,0.00
2022-12-17T23:27:54.291Z,0.00
2022-12-17T23:30:23.405Z,0.00
2022-12-17T23:32:52.110Z,0.00
2022-12-17T23:35:20.930Z,-0.10
2022-12-17T23:37:50.710Z,-0.10
2022-12-17T23:40:19.177Z,-0.10
2022-12-17T23:42:47.362Z,-0.10
2022-12-17T23:45:15.869Z,-0.10
2022-12-17T23:47:44.173Z,-0.10
2022-12-17T23:50:12.711Z,-0.10
2022-12-17T23:52:40.912Z,-0.10
2022-12-17T23:55:11.667Z,-0.10
2022-12-17T23:57:40.209Z,-0.10
